createdAt,value
2018-12-24T00:01:05.887Z,3.90
2018-12-24T00:03:46.802Z,3.90
2018-12-24T00:06:27.304Z,3.90
2018-12-24T00:09:08.459Z,4.00
2018-12-24T00:11:49.624Z,4.30
2018-12-24T00:14:30.620Z,4.30
2018-12-24T00:17:11.423Z,4.10
2018-12-24T00:19:52.444Z,4.00
2018-12-24T00:22:33.580Z,3.90
2018-12-24T00:25:14.567Z,3.80
2018-12-24T00:27:55.487Z,4.00
2018-12-24T00:30:36.683Z,3.70
2018-12-24T00:33:17.840Z,3.50
2018-12-24T00:35:58.719Z,3.50
2018-12-24T00:38:39.267Z,3.40
2018-12-24T00:41:20.204Z,3.30
2018-12-24T00:43:59.148Z,3.20
2018-12-24T00:46:47.179Z,3.30
2018-12-24T00:49:35.191Z,3.30
2018-12-24T00:52:23.220Z,3.30
2018-12-24T00:55:11.255Z,3.30
2018-12-24T00:57:59.270Z,3.40
2018-12-24T01:00:47.296Z,3.30
2018-12-24T01:03:35.309Z,3.20
2018-12-24T01:06:23.339Z,3.40
2018-12-24T01:09:11.354Z,3.20
2018-12-24T01:11:59.388Z,3.30
2018-12-24T01:14:47.404Z,3.10
2018-12-24T01:17:28.404Z,3.20
2018-12-24T01:20:09.332Z,3.20
2018-12-24T01:22:49.995Z,3.40
2018-12-24T01:25:31.055Z,3.20
2018-12-24T01:28:11.975Z,3.30
2018-12-24T01:30:52.833Z,3.10
2018-12-24T01:33:33.725Z,3.10
2018-12-24T01:36:15.036Z,3.00
2018-12-24T01:38:56.104Z,3.00
2018-12-24T01:41:37.068Z,2.70
2018-12-24T01:44:18.211Z,2.70
2018-12-24T01:46:57.216Z,2.70
2018-12-24T01:49:45.548Z,2.60
2018-12-24T01:52:33.568Z,2.60
2018-12-24T01:55:21.582Z,2.60
2018-12-24T01:58:09.607Z,2.60
2018-12-24T02:00:57.640Z,2.60
2018-12-24T02:03:45.648Z,2.60
2018-12-24T02:06:33.680Z,2.60
2018-12-24T02:09:21.694Z,2.50
2018-12-24T02:12:09.735Z,2.50
2018-12-24T02:14:57.743Z,2.50
2018-12-24T02:17:38.913Z,2.50
2018-12-24T02:20:19.680Z,2.60
2018-12-24T02:23:00.785Z,2.60
2018-12-24T02:25:41.720Z,2.60
2018-12-24T02:28:22.959Z,2.60
2018-12-24T02:31:03.952Z,2.60
2018-12-24T02:33:44.796Z,2.60
2018-12-24T02:36:25.972Z,2.70
2018-12-24T02:39:07.274Z,2.70
2018-12-24T02:41:46.380Z,2.70
2018-12-24T02:44:34.390Z,2.70
2018-12-24T02:47:22.424Z,2.80
2018-12-24T02:50:10.443Z,2.80
2018-12-24T02:52:58.463Z,2.80
2018-12-24T02:55:46.481Z,2.80
2018-12-24T02:58:34.527Z,2.90
2018-12-24T03:01:22.543Z,2.90
2018-12-24T03:04:10.555Z,2.90
2018-12-24T03:06:58.592Z,3.00
2018-12-24T03:09:46.600Z,3.00
2018-12-24T03:12:34.627Z,3.00
2018-12-24T03:15:22.639Z,3.00
2018-12-24T03:18:03.355Z,3.00
2018-12-24T03:20:44.481Z,3.00
2018-12-24T03:23:25.722Z,3.10
2018-12-24T03:26:06.517Z,3.10
2018-12-24T03:28:47.889Z,3.10
2018-12-24T03:31:28.793Z,3.00
2018-12-24T03:34:09.891Z,3.10
2018-12-24T03:36:50.601Z,3.10
2018-12-24T03:39:31.760Z,3.10
2018-12-24T03:42:12.877Z,3.10
2018-12-24T03:44:53.939Z,3.10
2018-12-24T03:47:35.135Z,3.20
2018-12-24T03:50:16.259Z,3.20
2018-12-24T03:52:57.381Z,3.10
2018-12-24T03:55:38.388Z,3.20
2018-12-24T03:58:19.651Z,3.20
2018-12-24T04:01:00.892Z,3.20
2018-12-24T04:03:41.805Z,3.20
2018-12-24T04:06:22.972Z,3.10
2018-12-24T04:09:04.375Z,3.10
2018-12-24T04:11:43.447Z,3.10
2018-12-24T04:14:31.456Z,3.10
2018-12-24T04:17:12.420Z,3.10
2018-12-24T04:19:53.428Z,3.10
2018-12-24T04:22:34.371Z,3.10
2018-12-24T04:25:15.665Z,3.10
2018-12-24T04:27:56.808Z,3.10
2018-12-24T04:30:38.065Z,3.10
2018-12-24T04:33:18.669Z,3.00
2018-12-24T04:35:59.564Z,3.00
2018-12-24T04:38:40.457Z,3.00
2018-12-24T04:41:21.717Z,2.90
2018-12-24T04:44:02.913Z,2.90
2018-12-24T04:46:44.097Z,2.80
2018-12-24T04:49:24.627Z,2.80
2018-12-24T04:52:05.375Z,2.80
2018-12-24T04:54:46.269Z,2.70
2018-12-24T04:57:26.819Z,2.70
2018-12-24T05:00:08.224Z,2.70
2018-12-24T05:02:49.647Z,2.70
2018-12-24T05:05:31.003Z,2.70
2018-12-24T05:08:12.339Z,2.70
2018-12-24T05:10:53.471Z,2.70
2018-12-24T05:13:40.843Z,2.70
2018-12-24T05:16:17.734Z,2.70
2018-12-24T05:18:58.936Z,2.70
2018-12-24T05:21:40.406Z,2.70
2018-12-24T05:24:21.724Z,2.70
2018-12-24T05:27:02.992Z,2.70
2018-12-24T05:29:44.139Z,2.70
2018-12-24T05:32:25.102Z,2.80
2018-12-24T05:35:06.308Z,2.80
2018-12-24T05:37:47.205Z,2.80
2018-12-24T05:40:28.200Z,2.80
2018-12-24T05:43:09.363Z,2.80
2018-12-24T05:45:50.345Z,2.80
2018-12-24T05:48:31.400Z,2.80
2018-12-24T05:51:12.140Z,2.90
2018-12-24T05:53:53.571Z,2.90
2018-12-24T05:56:34.539Z,2.90
2018-12-24T05:59:15.175Z,3.00
2018-12-24T06:01:56.279Z,3.00
2018-12-24T06:04:37.679Z,3.10
2018-12-24T06:07:18.527Z,3.00
2018-12-24T06:09:59.052Z,3.00
2018-12-24T06:12:40.166Z,3.10
2018-12-24T06:15:20.974Z,3.10
2018-12-24T06:18:02.283Z,3.10
2018-12-24T06:20:43.687Z,3.10
2018-12-24T06:23:24.699Z,3.20
2018-12-24T06:26:05.900Z,3.30
2018-12-24T06:28:47.212Z,3.30
2018-12-24T06:31:27.885Z,3.20
2018-12-24T06:34:09.244Z,3.20
2018-12-24T06:36:50.331Z,3.00
2018-12-24T06:39:31.273Z,2.80
2018-12-24T06:42:12.368Z,2.80
2018-12-24T06:44:53.567Z,2.70
2018-12-24T06:47:34.792Z,2.70
2018-12-24T06:50:15.919Z,2.70
2018-12-24T06:52:57.319Z,2.70
2018-12-24T06:55:38.452Z,2.70
2018-12-24T06:58:19.842Z,2.70
2018-12-24T07:01:01.169Z,2.70
2018-12-24T07:03:42.508Z,2.70
2018-12-24T07:06:25.377Z,2.70
2018-12-24T07:09:06.219Z,2.70
2018-12-24T07:11:46.967Z,2.70
2018-12-24T07:14:27.536Z,2.70
2018-12-24T07:17:08.707Z,2.70
2018-12-24T07:19:49.768Z,2.70
2018-12-24T07:22:30.697Z,2.70
2018-12-24T07:25:11.884Z,2.60
2018-12-24T07:27:52.578Z,2.60
2018-12-24T07:30:33.655Z,2.60
2018-12-24T07:33:14.693Z,2.60
2018-12-24T07:35:55.828Z,2.60
2018-12-24T07:38:37.079Z,2.60
2018-12-24T07:41:17.992Z,2.50
2018-12-24T07:43:58.724Z,2.50
2018-12-24T07:46:41.003Z,2.50
2018-12-24T07:49:22.195Z,2.70
2018-12-24T07:52:03.254Z,2.40
2018-12-24T07:54:44.447Z,2.40
2018-12-24T07:57:25.804Z,2.30
2018-12-24T08:00:06.352Z,2.30
2018-12-24T08:02:47.384Z,2.30
2018-12-24T08:05:28.571Z,2.40
2018-12-24T08:08:09.616Z,2.40
2018-12-24T08:10:38.321Z,2.30
2018-12-24T08:13:26.341Z,2.40
2018-12-24T08:16:14.375Z,2.30
2018-12-24T08:18:55.576Z,2.40
2018-12-24T08:21:36.874Z,2.30
2018-12-24T08:24:18.205Z,2.40
2018-12-24T08:26:59.077Z,2.40
2018-12-24T08:29:40.368Z,2.40
2018-12-24T08:32:21.489Z,2.30
2018-12-24T08:35:02.187Z,2.40
2018-12-24T08:37:43.429Z,2.30
2018-12-24T08:40:24.796Z,2.30
2018-12-24T08:43:05.811Z,2.30
2018-12-24T08:45:46.676Z,2.30
2018-12-24T08:48:27.716Z,2.60
2018-12-24T08:51:08.820Z,2.50
2018-12-24T08:53:49.867Z,2.40
2018-12-24T08:56:30.416Z,2.50
2018-12-24T08:59:10.897Z,2.30
2018-12-24T09:01:51.760Z,2.40
2018-12-24T09:04:32.930Z,2.40
2018-12-24T09:07:13.314Z,2.10
2018-12-24T09:09:54.252Z,2.10
2018-12-24T09:12:35.537Z,2.10
2018-12-24T09:15:16.975Z,2.30
2018-12-24T09:17:58.151Z,2.20
2018-12-24T09:20:39.631Z,2.10
2018-12-24T09:23:20.452Z,2.10
2018-12-24T09:26:01.159Z,2.10
2018-12-24T09:28:42.099Z,2.00
2018-12-24T09:31:23.487Z,2.00
2018-12-24T09:34:04.458Z,2.10
2018-12-24T09:36:45.767Z,2.10
2018-12-24T09:39:26.669Z,2.20
2018-12-24T09:42:07.565Z,2.20
2018-12-24T09:44:48.615Z,2.20
2018-12-24T09:47:29.558Z,2.20
2018-12-24T09:49:58.251Z,2.20
2018-12-24T09:52:46.269Z,2.20
2018-12-24T09:55:34.304Z,2.30
2018-12-24T09:58:22.321Z,2.30
2018-12-24T10:01:10.359Z,2.30
2018-12-24T10:04:02.845Z,2.30
2018-12-24T10:06:48.056Z,2.30
2018-12-24T10:09:36.099Z,2.40
2018-12-24T10:12:24.115Z,2.40
2018-12-24T10:15:12.151Z,2.40
2018-12-24T10:17:53.492Z,2.20
2018-12-24T10:20:34.155Z,2.00
2018-12-24T10:23:15.309Z,2.10
2018-12-24T10:25:55.758Z,1.90
2018-12-24T10:28:37.124Z,1.80
2018-12-24T10:31:18.615Z,1.80
2018-12-24T10:33:57.593Z,1.80
2018-12-24T10:36:45.630Z,1.90
2018-12-24T10:39:33.643Z,1.90
2018-12-24T10:42:21.676Z,1.80
2018-12-24T10:45:16.391Z,1.90
2018-12-24T10:47:59.376Z,1.90
2018-12-24T10:50:47.412Z,1.80
2018-12-24T10:53:35.425Z,1.80
2018-12-24T10:56:23.460Z,1.90
2018-12-24T10:59:11.471Z,1.90
2018-12-24T11:01:59.504Z,2.00
2018-12-24T11:04:47.520Z,2.00
2018-12-24T11:07:35.555Z,2.00
2018-12-24T11:10:23.600Z,2.10
2018-12-24T11:13:11.608Z,2.00
2018-12-24T11:15:59.647Z,2.00
2018-12-24T11:18:28.311Z,1.90
2018-12-24T11:21:16.352Z,1.80
2018-12-24T11:24:04.368Z,1.90
2018-12-24T11:26:52.400Z,1.80
2018-12-24T11:29:40.415Z,1.70
2018-12-24T11:32:28.447Z,1.80
2018-12-24T11:35:16.487Z,1.80
2018-12-24T11:38:04.960Z,1.70
2018-12-24T11:40:53.559Z,1.70
2018-12-24T11:43:41.568Z,1.70
2018-12-24T11:46:29.603Z,1.70
2018-12-24T11:49:17.607Z,1.80
2018-12-24T11:52:05.639Z,1.80
2018-12-24T11:54:53.653Z,1.80
2018-12-24T11:57:41.686Z,1.80
2018-12-24T12:00:29.727Z,1.80
2018-12-24T12:03:17.731Z,1.80
2018-12-24T12:06:06.151Z,1.80
2018-12-24T12:08:54.239Z,1.80
2018-12-24T12:11:42.190Z,1.70
2018-12-24T12:14:30.206Z,1.70
2018-12-24T12:17:18.235Z,1.70
2018-12-24T12:19:58.935Z,1.70
2018-12-24T12:22:40.266Z,1.60
2018-12-24T12:25:21.365Z,1.50
2018-12-24T12:28:02.351Z,1.50
2018-12-24T12:30:43.532Z,1.50
2018-12-24T12:33:24.794Z,1.40
2018-12-24T12:36:05.871Z,1.40
2018-12-24T12:38:46.811Z,1.40
2018-12-24T12:41:27.848Z,1.50
2018-12-24T12:44:08.998Z,1.50
2018-12-24T12:46:50.236Z,1.40
2018-12-24T12:49:31.265Z,1.50
2018-12-24T12:52:12.296Z,1.50
2018-12-24T12:54:53.527Z,1.50
2018-12-24T12:57:34.800Z,1.40
2018-12-24T13:00:15.892Z,1.40
2018-12-24T13:02:57.203Z,1.40
2018-12-24T13:05:38.582Z,1.30
2018-12-24T13:08:19.906Z,1.30
2018-12-24T13:11:01.276Z,1.30
2018-12-24T13:13:42.472Z,1.30
2018-12-24T13:16:23.135Z,1.30
2018-12-24T13:19:04.260Z,1.30
2018-12-24T13:21:45.351Z,1.30
2018-12-24T13:24:26.238Z,1.30
2018-12-24T13:27:07.141Z,1.40
2018-12-24T13:29:47.877Z,1.20
2018-12-24T13:32:29.136Z,1.10
2018-12-24T13:35:10.204Z,1.00
2018-12-24T13:37:51.191Z,1.00
2018-12-24T13:40:32.218Z,1.10
2018-12-24T13:43:13.419Z,0.90
2018-12-24T13:45:54.415Z,0.90
2018-12-24T13:49:08.995Z,0.90
2018-12-24T13:51:49.581Z,1.00
2018-12-24T13:54:30.060Z,0.80
2018-12-24T13:57:10.923Z,0.70
2018-12-24T13:59:51.460Z,0.60
2018-12-24T14:02:32.056Z,0.60
2018-12-24T14:05:12.705Z,0.60
2018-12-24T14:07:53.466Z,0.60
2018-12-24T14:10:34.051Z,0.60
2018-12-24T14:13:14.631Z,0.60
2018-12-24T14:15:55.196Z,0.60
2018-12-24T14:18:36.123Z,0.70
2018-12-24T14:21:16.751Z,0.70
2018-12-24T14:23:57.332Z,0.70
2018-12-24T14:26:38.185Z,0.70
2018-12-24T14:29:18.877Z,0.70
2018-12-24T14:31:59.471Z,0.70
2018-12-24T14:34:39.941Z,0.60
2018-12-24T14:37:20.696Z,0.70
2018-12-24T14:40:01.967Z,0.60
2018-12-24T14:42:43.054Z,0.60
2018-12-24T14:45:23.738Z,0.50
2018-12-24T14:48:04.119Z,0.50
2018-12-24T14:50:47.320Z,0.50
2018-12-24T14:53:27.593Z,0.40
2018-12-24T14:56:08.867Z,0.30
2018-12-24T14:58:49.703Z,0.30
2018-12-24T15:01:30.589Z,0.20
2018-12-24T15:04:11.432Z,0.20
2018-12-24T15:06:51.986Z,0.30
2018-12-24T15:09:32.788Z,0.20
2018-12-24T15:12:13.802Z,0.10
2018-12-24T15:21:05.591Z,0.30
2018-12-24T15:23:46.208Z,0.40
2018-12-24T15:26:26.728Z,0.40
2018-12-24T15:29:07.353Z,0.30
2018-12-24T15:31:48.433Z,0.30
2018-12-24T15:34:29.148Z,0.20
2018-12-24T15:37:09.910Z,0.10
2018-12-24T15:39:50.295Z,0.10
2018-12-24T15:42:32.182Z,0.00
2018-12-24T15:45:11.060Z,-0.10
2018-12-24T15:47:58.988Z,-0.10
2018-12-24T15:50:46.882Z,0.00
2018-12-24T15:53:34.806Z,0.00
2018-12-24T15:56:22.715Z,-0.10
2018-12-24T15:59:10.644Z,0.00
2018-12-24T16:01:58.544Z,0.10
2018-12-24T16:04:46.476Z,0.00
2018-12-24T16:07:34.400Z,0.00
2018-12-24T16:10:22.303Z,0.00
2018-12-24T16:13:10.232Z,0.00
2018-12-24T16:15:58.140Z,0.00
2018-12-24T16:18:38.999Z,0.00
2018-12-24T16:21:19.685Z,0.00
2018-12-24T16:24:00.759Z,0.00
2018-12-24T16:26:41.540Z,0.10
2018-12-24T16:29:22.169Z,0.00
2018-12-24T16:32:02.756Z,0.00
2018-12-24T16:34:43.262Z,0.00
2018-12-24T16:37:23.715Z,0.00
2018-12-24T16:40:04.253Z,0.00
2018-12-24T16:42:44.719Z,0.10
2018-12-24T16:45:23.545Z,0.10
2018-12-24T16:48:11.462Z,0.10
2018-12-24T16:50:59.363Z,0.00
2018-12-24T16:53:47.288Z,0.00
2018-12-24T16:56:35.192Z,0.10
2018-12-24T16:59:23.126Z,0.00
2018-12-24T17:02:11.019Z,0.00
2018-12-24T17:04:58.952Z,0.10
2018-12-24T17:07:46.871Z,0.00
2018-12-24T17:10:15.436Z,0.00
2018-12-24T17:13:03.367Z,0.00
2018-12-24T17:15:51.263Z,0.00
2018-12-24T17:18:31.817Z,0.00
2018-12-24T17:21:12.533Z,0.00
2018-12-24T17:23:53.074Z,0.00
2018-12-24T17:26:33.844Z,0.00
2018-12-24T17:29:14.619Z,0.00
2018-12-24T17:31:55.363Z,0.00
2018-12-24T17:34:35.983Z,0.00
2018-12-24T17:37:17.003Z,0.10
2018-12-24T17:39:57.671Z,0.00
2018-12-24T17:42:38.215Z,0.00
2018-12-24T17:45:18.954Z,0.00
2018-12-24T17:47:59.579Z,0.00
2018-12-24T17:50:40.303Z,0.00
2018-12-24T17:53:20.691Z,0.00
2018-12-24T17:56:01.535Z,0.00
2018-12-24T17:58:44.456Z,0.00
2018-12-24T18:01:25.067Z,0.00
2018-12-24T18:04:05.724Z,0.00
2018-12-24T18:06:46.437Z,0.00
2018-12-24T18:09:27.130Z,0.00
2018-12-24T18:12:07.874Z,0.00
2018-12-24T18:14:48.484Z,0.00
2018-12-24T18:17:29.060Z,0.00
2018-12-24T18:20:09.563Z,0.00
2018-12-24T18:22:50.879Z,0.10
2018-12-24T18:25:32.583Z,0.10
2018-12-24T18:28:13.968Z,0.10
2018-12-24T18:30:54.937Z,0.10
2018-12-24T18:33:35.791Z,0.10
2018-12-24T18:36:16.696Z,0.20
2018-12-24T18:38:57.463Z,0.10
2018-12-24T18:41:38.576Z,0.20
2018-12-24T18:44:19.489Z,0.20
2018-12-24T18:46:59.995Z,0.20
2018-12-24T18:49:40.675Z,0.10
2018-12-24T18:52:21.471Z,0.10
2018-12-24T18:55:01.946Z,0.10
2018-12-24T18:57:42.624Z,0.10
2018-12-24T19:00:23.204Z,0.10
2018-12-24T19:03:04.433Z,0.10
2018-12-24T19:05:45.469Z,0.00
2018-12-24T19:08:26.251Z,0.00
2018-12-24T19:11:07.020Z,0.00
2018-12-24T19:13:48.295Z,0.10
2018-12-24T19:16:28.848Z,0.00
2018-12-24T19:19:09.616Z,0.00
2018-12-24T19:21:50.418Z,0.10
2018-12-24T19:24:31.284Z,0.10
2018-12-24T19:27:11.640Z,0.10
2018-12-24T19:29:52.392Z,0.10
2018-12-24T19:32:33.046Z,0.10
2018-12-24T19:35:13.624Z,0.20
2018-12-24T19:37:54.531Z,0.20
2018-12-24T19:40:35.267Z,0.30
2018-12-24T19:43:16.209Z,0.30
2018-12-24T19:45:56.711Z,0.40
2018-12-24T19:48:37.521Z,0.30
2018-12-24T19:51:18.654Z,0.20
2018-12-24T19:53:59.962Z,0.20
2018-12-24T19:56:40.836Z,0.20
2018-12-24T19:59:21.822Z,0.20
2018-12-24T20:02:02.635Z,0.20
2018-12-24T20:04:43.748Z,0.20
2018-12-24T20:07:24.347Z,0.20
2018-12-24T20:10:05.544Z,0.20
2018-12-24T20:12:45.989Z,0.20
2018-12-24T20:15:26.788Z,0.20
2018-12-24T20:18:07.495Z,0.20
2018-12-24T20:20:48.323Z,0.20
2018-12-24T20:23:29.112Z,0.20
2018-12-24T20:26:10.028Z,0.20
2018-12-24T20:28:50.862Z,0.20
2018-12-24T20:31:31.772Z,0.20
2018-12-24T20:34:12.486Z,0.20
2018-12-24T20:36:53.086Z,0.20
2018-12-24T20:39:33.716Z,0.10
2018-12-24T20:42:14.524Z,0.20
2018-12-24T20:44:55.373Z,0.20
2018-12-24T20:47:36.184Z,0.20
2018-12-24T20:50:17.049Z,0.20
2018-12-24T20:52:58.188Z,0.20
2018-12-24T20:55:39.169Z,0.20
2018-12-24T20:58:19.796Z,0.20
2018-12-24T21:01:00.165Z,0.30
2018-12-24T21:03:40.845Z,0.20
2018-12-24T21:06:21.593Z,0.20
2018-12-24T21:09:02.235Z,0.30
2018-12-24T21:11:43.107Z,0.30
2018-12-24T21:14:23.595Z,0.30
2018-12-24T21:17:03.995Z,0.30
2018-12-24T21:19:44.608Z,0.30
2018-12-24T21:22:25.444Z,0.30
2018-12-24T21:25:05.908Z,0.30
2018-12-24T21:27:46.572Z,0.30
2018-12-24T21:30:27.666Z,0.30
2018-12-24T21:33:08.557Z,0.30
2018-12-24T21:35:49.135Z,0.30
2018-12-24T21:38:29.849Z,0.30
2018-12-24T21:41:10.610Z,0.30
2018-12-24T21:43:51.247Z,0.30
2018-12-24T21:46:32.055Z,0.30
2018-12-24T21:49:12.791Z,0.40
2018-12-24T21:51:53.319Z,0.30
2018-12-24T21:54:34.003Z,0.30
2018-12-24T21:57:14.788Z,0.30
2018-12-24T21:59:55.127Z,0.30
2018-12-24T22:02:35.817Z,0.30
2018-12-24T22:05:16.677Z,0.30
2018-12-24T22:07:57.038Z,0.30
2018-12-24T22:10:37.920Z,0.30
2018-12-24T22:13:18.626Z,0.30
2018-12-24T22:15:59.449Z,0.30
2018-12-24T22:18:40.365Z,0.30
2018-12-24T22:21:21.266Z,0.30
2018-12-24T22:24:01.903Z,0.30
2018-12-24T22:26:42.673Z,0.30
2018-12-24T22:29:23.315Z,0.30
2018-12-24T22:32:04.096Z,0.30
2018-12-24T22:34:45.124Z,0.30
2018-12-24T22:37:25.944Z,0.30
2018-12-24T22:40:06.507Z,0.30
2018-12-24T22:42:47.131Z,0.30
2018-12-24T22:45:27.776Z,0.30
2018-12-24T22:48:08.196Z,0.40
2018-12-24T22:50:49.083Z,0.40
2018-12-24T22:53:29.664Z,0.50
2018-12-24T22:56:10.304Z,0.50
2018-12-24T22:58:51.231Z,0.40
2018-12-24T23:01:32.244Z,0.50
2018-12-24T23:04:12.967Z,0.50
2018-12-24T23:06:53.810Z,0.70
2018-12-24T23:09:34.960Z,0.70
2018-12-24T23:12:15.649Z,0.60
2018-12-24T23:14:56.366Z,0.70
2018-12-24T23:17:37.052Z,0.60
2018-12-24T23:20:18.016Z,0.50
2018-12-24T23:22:59.095Z,0.40
2018-12-24T23:25:39.764Z,0.40
2018-12-24T23:28:20.873Z,0.40
2018-12-24T23:31:02.611Z,0.50
2018-12-24T23:33:43.267Z,0.40
2018-12-24T23:36:23.844Z,0.40
2018-12-24T23:39:04.695Z,0.50
2018-12-24T23:41:45.723Z,0.50
2018-12-24T23:44:26.452Z,0.50
2018-12-24T23:47:07.544Z,0.50
2018-12-24T23:49:48.375Z,0.50
2018-12-24T23:52:29.027Z,0.50
2018-12-24T23:55:09.773Z,0.50
2018-12-24T23:57:50.550Z,0.50
